createdAt,value
2023-05-03T00:01:07.506Z,993.9
2023-05-03T00:20:15.402Z,993.8
2023-05-03T00:39:26.255Z,993.6
2023-05-03T00:58:37.921Z,993.5
2023-05-03T01:17:46.148Z,993.6
2023-05-03T01:36:55.619Z,993.7
2023-05-03T01:56:07.695Z,993.7
2023-05-03T02:15:16.354Z,993.8
2023-05-03T02:34:28.149Z,993.8
2023-05-03T02:53:37.672Z,994
2023-05-03T03:12:49.695Z,994
2023-05-03T03:32:04.147Z,993.9
2023-05-03T03:51:15.319Z,993.8
2023-05-03T04:10:24.783Z,993.8
2023-05-03T04:29:33.134Z,993.7
2023-05-03T04:48:44.621Z,993.6
2023-05-03T05:07:56.100Z,993.5
2023-05-03T05:27:07.700Z,993.8
2023-05-03T05:46:19.708Z,994.1
2023-05-03T06:05:33.370Z,994.2
2023-05-03T06:24:44.006Z,994.3
2023-05-03T06:43:58.506Z,994.3
2023-05-03T07:03:13.632Z,994.4
2023-05-03T07:22:27.863Z,994.3
2023-05-03T07:42:03.730Z,994.1
2023-05-03T08:01:24.798Z,993.9
2023-05-03T08:20:42.438Z,993.7
2023-05-03T08:39:53.505Z,993.7
2023-05-03T08:59:17.004Z,993.6
2023-05-03T09:18:24.329Z,993.6
2023-05-03T09:37:24.624Z,993.5
2023-05-03T09:56:34.566Z,993.4
2023-05-03T10:15:47.500Z,993.2
2023-05-03T10:34:54.605Z,993.1
2023-05-03T10:54:02.613Z,992.8
2023-05-03T11:13:21.534Z,992.6
2023-05-03T11:32:33.419Z,992.4
2023-05-03T11:51:54.764Z,992.4
2023-05-03T12:11:02.985Z,992.2
2023-05-03T12:30:11.208Z,992.1
2023-05-03T12:49:24.774Z,991.9
2023-05-03T13:08:51.065Z,991.7
2023-05-03T13:27:52.812Z,991.2
2023-05-03T13:47:05.098Z,991.1
2023-05-03T14:06:18.938Z,990.8
2023-05-03T14:25:31.724Z,990.6
2023-05-03T14:44:42.061Z,990.4
2023-05-03T15:03:53.766Z,990.2
2023-05-03T15:23:05.633Z,990.1
2023-05-03T15:42:16.194Z,990
2023-05-03T16:01:27.808Z,990
2023-05-03T16:20:35.457Z,989.8
2023-05-03T16:53:45.102Z,989.7
2023-05-03T16:56:42.944Z,989.7
2023-05-03T16:59:42.523Z,989.6
2023-05-03T17:20:18.008Z,989.6
2023-05-03T17:38:17.545Z,989.5
